createdAt,value
2023-02-22T00:00:44.466Z,0.66
2023-02-22T00:03:25.674Z,0.71
2023-02-22T00:05:58.338Z,1.02
2023-02-22T00:08:30.539Z,1.49
2023-02-22T00:10:58.241Z,1.63
2023-02-22T00:13:24.900Z,1.81
2023-02-22T00:15:51.668Z,2.03
2023-02-22T00:18:19.016Z,2.38
2023-02-22T00:20:46.015Z,2.00
2023-02-22T00:23:19.049Z,1.76
2023-02-22T00:25:46.676Z,2.00
2023-02-22T00:28:15.256Z,2.17
2023-02-22T00:30:45.057Z,2.21
2023-02-22T00:33:15.265Z,2.41
2023-02-22T00:35:44.708Z,2.68
2023-02-22T00:38:11.793Z,2.52
2023-02-22T00:40:40.199Z,2.21
2023-02-22T00:43:06.975Z,1.83
2023-02-22T00:45:34.423Z,1.72
2023-02-22T00:48:01.433Z,2.03
2023-02-22T00:50:29.246Z,2.33
2023-02-22T00:52:56.490Z,2.18
2023-02-22T00:55:25.045Z,1.90
2023-02-22T00:57:51.993Z,1.91
2023-02-22T01:00:27.021Z,1.99
2023-02-22T01:02:53.916Z,1.97
2023-02-22T01:05:22.543Z,1.97
2023-02-22T01:07:49.836Z,1.74
2023-02-22T01:10:19.397Z,1.63
2023-02-22T01:12:47.089Z,1.89
2023-02-22T01:15:13.751Z,1.73
2023-02-22T01:17:41.612Z,1.84
2023-02-22T01:20:12.453Z,1.83
2023-02-22T01:22:43.178Z,1.96
2023-02-22T01:25:10.916Z,1.77
2023-02-22T01:27:38.463Z,1.73
2023-02-22T01:30:09.274Z,1.37
2023-02-22T01:32:36.403Z,1.25
2023-02-22T01:35:08.567Z,1.17
2023-02-22T01:37:35.861Z,1.20
2023-02-22T01:40:04.110Z,1.26
2023-02-22T01:42:30.792Z,1.16
2023-02-22T01:45:31.177Z,1.27
2023-02-22T01:48:08.753Z,1.34
2023-02-22T01:50:38.746Z,1.12
2023-02-22T01:53:05.364Z,1.19
2023-02-22T01:55:32.345Z,1.26
2023-02-22T01:57:59.073Z,1.39
2023-02-22T02:00:27.668Z,1.26
2023-02-22T02:02:59.036Z,1.15
2023-02-22T02:05:31.420Z,1.34
2023-02-22T02:07:58.986Z,1.41
2023-02-22T02:10:26.864Z,1.79
2023-02-22T02:12:53.713Z,1.68
2023-02-22T02:15:23.373Z,1.69
2023-02-22T02:17:51.907Z,1.76
2023-02-22T02:20:41.278Z,1.80
2023-02-22T02:23:29.708Z,1.62
2023-02-22T02:26:17.707Z,1.50
2023-02-22T02:28:56.227Z,1.31
2023-02-22T02:32:20.264Z,1.36
2023-02-22T02:35:21.571Z,1.18
2023-02-22T02:38:09.712Z,1.47
2023-02-22T02:40:41.464Z,1.73
2023-02-22T02:43:17.686Z,1.57
2023-02-22T02:45:54.855Z,1.18
2023-02-22T02:48:23.548Z,0.62
2023-02-22T02:50:50.242Z,1.09
2023-02-22T02:53:21.007Z,1.18
2023-02-22T02:55:47.617Z,0.90
2023-02-22T02:58:20.086Z,0.76
2023-02-22T03:00:46.798Z,0.60
2023-02-22T03:03:42.202Z,0.67
2023-02-22T03:06:34.807Z,0.41
2023-02-22T03:09:19.717Z,0.77
2023-02-22T03:11:51.497Z,0.90
2023-02-22T03:14:24.826Z,1.17
2023-02-22T03:17:04.912Z,1.25
2023-02-22T03:19:38.905Z,1.12
2023-02-22T03:22:16.596Z,1.34
2023-02-22T03:25:15.437Z,1.58
2023-02-22T03:27:53.343Z,1.33
2023-02-22T03:30:26.021Z,0.99
2023-02-22T03:32:55.245Z,0.86
2023-02-22T03:35:30.561Z,0.95
2023-02-22T03:37:58.431Z,0.68
2023-02-22T03:40:31.729Z,0.50
2023-02-22T03:43:07.061Z,0.46
2023-02-22T03:45:33.842Z,0.44
2023-02-22T03:48:26.142Z,0.60
2023-02-22T03:50:52.907Z,0.62
2023-02-22T03:53:19.586Z,0.75
2023-02-22T03:55:47.958Z,0.33
2023-02-22T03:58:14.664Z,0.10
2023-02-22T04:00:44.651Z,0.17
2023-02-22T04:03:11.787Z,0.37
2023-02-22T04:05:58.644Z,0.18
2023-02-22T04:08:25.345Z,0.06
2023-02-22T04:10:52.179Z,-0.11
2023-02-22T04:13:19.040Z,0.14
2023-02-22T04:15:45.852Z,0.32
2023-02-22T04:18:12.581Z,0.09
2023-02-22T04:20:39.336Z,-0.06
2023-02-22T04:23:05.946Z,0.00
2023-02-22T04:25:33.036Z,0.05
2023-02-22T04:27:59.779Z,0.18
2023-02-22T04:30:26.398Z,0.34
2023-02-22T04:32:53.100Z,0.19
2023-02-22T04:35:19.852Z,0.06
2023-02-22T04:37:46.481Z,0.13
2023-02-22T04:40:13.205Z,0.31
2023-02-22T04:42:40.014Z,0.43
2023-02-22T04:45:08.120Z,0.53
2023-02-22T04:47:35.514Z,0.65
2023-02-22T04:50:02.616Z,0.38
2023-02-22T04:52:29.377Z,0.15
2023-02-22T04:54:56.085Z,-0.04
2023-02-22T04:57:22.700Z,-0.23
2023-02-22T04:59:51.132Z,-0.48
2023-02-22T05:02:18.375Z,-0.48
2023-02-22T05:04:45.322Z,-0.35
2023-02-22T05:07:12.352Z,-0.02
2023-02-22T05:09:39.115Z,0.07
2023-02-22T05:12:06.021Z,-0.13
2023-02-22T05:14:32.990Z,-0.45
2023-02-22T05:16:59.754Z,-0.36
2023-02-22T05:19:26.445Z,-0.13
2023-02-22T05:21:53.431Z,0.20
2023-02-22T05:24:20.065Z,0.15
2023-02-22T05:26:46.757Z,0.14
2023-02-22T05:29:13.477Z,0.06
2023-02-22T05:31:41.957Z,-0.13
2023-02-22T05:34:08.812Z,0.24
2023-02-22T05:36:35.547Z,0.14
2023-02-22T05:39:02.184Z,0.23
2023-02-22T05:41:28.824Z,0.61
2023-02-22T05:43:55.524Z,0.27
2023-02-22T05:46:22.210Z,0.12
2023-02-22T05:48:48.936Z,0.16
2023-02-22T05:51:15.913Z,0.16
2023-02-22T05:53:43.321Z,0.40
2023-02-22T05:56:09.945Z,0.44
2023-02-22T05:58:36.631Z,0.46
2023-02-22T06:01:03.617Z,0.74
2023-02-22T06:03:30.266Z,0.45
2023-02-22T06:05:58.064Z,0.42
2023-02-22T06:08:24.754Z,0.30
2023-02-22T06:10:51.466Z,0.16
2023-02-22T06:13:18.274Z,0.18
2023-02-22T06:15:44.911Z,0.37
2023-02-22T06:18:11.574Z,0.33
2023-02-22T06:20:38.305Z,0.39
2023-02-22T06:23:04.991Z,0.42
2023-02-22T06:25:31.914Z,0.40
2023-02-22T06:27:59.830Z,0.50
2023-02-22T06:30:26.905Z,0.77
2023-02-22T06:32:53.690Z,0.98
2023-02-22T06:35:20.639Z,0.87
2023-02-22T06:37:47.382Z,1.26
2023-02-22T06:40:14.889Z,1.36
2023-02-22T06:42:41.671Z,1.51
2023-02-22T06:45:08.787Z,1.66
2023-02-22T06:47:41.655Z,1.88
2023-02-22T06:50:18.521Z,2.07
2023-02-22T06:52:45.487Z,2.11
2023-02-22T06:55:12.121Z,2.39
2023-02-22T06:57:38.877Z,2.76
2023-02-22T07:00:07.292Z,2.96
2023-02-22T07:02:33.966Z,2.94
2023-02-22T07:05:00.657Z,3.05
2023-02-22T07:07:27.432Z,3.29
2023-02-22T07:09:54.008Z,3.30
2023-02-22T07:12:20.765Z,3.37
2023-02-22T07:14:47.383Z,3.54
2023-02-22T07:17:13.969Z,3.67
2023-02-22T07:19:40.616Z,3.79
2023-02-22T07:22:07.273Z,3.90
2023-02-22T07:24:35.152Z,3.98
2023-02-22T07:27:02.640Z,4.08
2023-02-22T07:29:29.403Z,4.08
2023-02-22T07:31:56.068Z,4.37
2023-02-22T07:34:22.945Z,4.43
2023-02-22T07:36:49.652Z,4.57
2023-02-22T07:39:16.237Z,4.86
2023-02-22T07:41:42.952Z,5.09
2023-02-22T07:44:09.712Z,5.26
2023-02-22T07:46:36.437Z,5.13
2023-02-22T07:49:03.108Z,5.42
2023-02-22T07:51:29.769Z,5.72
2023-02-22T07:53:56.481Z,6.13
2023-02-22T07:56:23.156Z,6.07
2023-02-22T07:58:49.881Z,6.45
2023-02-22T08:01:16.765Z,6.53
2023-02-22T08:03:43.839Z,6.76
2023-02-22T08:06:10.489Z,7.04
2023-02-22T08:08:37.159Z,7.22
2023-02-22T08:11:04.046Z,7.36
2023-02-22T08:13:30.696Z,7.55
2023-02-22T08:15:57.663Z,7.44
2023-02-22T08:18:24.695Z,7.87
2023-02-22T08:20:52.189Z,8.08
2023-02-22T08:23:19.267Z,7.93
2023-02-22T08:25:45.978Z,8.28
2023-02-22T08:28:15.120Z,8.66
2023-02-22T08:30:44.794Z,8.80
2023-02-22T08:33:14.628Z,9.23
2023-02-22T08:35:41.518Z,9.37
2023-02-22T08:38:08.422Z,10.06
2023-02-22T08:40:36.056Z,10.13
2023-02-22T08:43:02.978Z,10.39
2023-02-22T08:45:29.770Z,10.86
2023-02-22T08:47:57.762Z,10.78
2023-02-22T08:50:26.498Z,11.18
2023-02-22T08:52:58.695Z,11.28
2023-02-22T08:55:26.711Z,11.39
2023-02-22T08:57:53.651Z,12.22
2023-02-22T09:00:26.113Z,12.38
2023-02-22T09:02:52.880Z,12.61
2023-02-22T09:05:19.615Z,12.99
2023-02-22T09:07:46.358Z,13.06
2023-02-22T09:10:15.512Z,13.23
2023-02-22T09:12:42.712Z,13.44
2023-02-22T09:15:09.731Z,13.49
2023-02-22T09:17:37.436Z,13.36
2023-02-22T09:20:05.735Z,13.49
2023-02-22T09:22:32.441Z,13.78
2023-02-22T09:25:02.571Z,14.20
2023-02-22T09:27:34.657Z,13.92
2023-02-22T09:30:01.387Z,14.01
2023-02-22T09:32:28.266Z,14.42
2023-02-22T09:34:55.768Z,14.50
2023-02-22T09:37:22.489Z,14.26
2023-02-22T09:39:49.301Z,14.84
2023-02-22T09:42:15.925Z,14.82
2023-02-22T09:44:54.807Z,15.09
2023-02-22T09:47:38.915Z,15.20
2023-02-22T09:50:26.779Z,15.24
2023-02-22T09:53:05.398Z,15.24
2023-02-22T09:55:38.352Z,15.58
2023-02-22T09:58:23.766Z,15.58
2023-02-22T10:00:54.016Z,15.64
2023-02-22T10:03:28.539Z,15.91
2023-02-22T10:06:03.183Z,15.99
2023-02-22T10:08:33.276Z,16.11
2023-02-22T10:11:12.816Z,16.25
2023-02-22T10:13:58.205Z,16.09
2023-02-22T10:16:54.479Z,16.09
2023-02-22T10:19:21.080Z,16.11
2023-02-22T10:21:54.347Z,16.17
2023-02-22T10:24:45.632Z,16.19
2023-02-22T10:27:18.179Z,16.02
2023-02-22T10:29:48.359Z,16.37
2023-02-22T10:32:19.148Z,16.52
2023-02-22T10:34:51.560Z,16.19
2023-02-22T10:37:23.793Z,16.50
2023-02-22T10:39:50.528Z,16.75
2023-02-22T10:42:17.236Z,17.04
2023-02-22T10:44:43.971Z,17.18
2023-02-22T10:47:11.503Z,16.93
2023-02-22T10:49:44.263Z,17.18
2023-02-22T10:52:19.001Z,17.34
2023-02-22T10:54:46.856Z,17.31
2023-02-22T10:57:13.654Z,17.25
2023-02-22T10:59:42.059Z,17.74
2023-02-22T11:02:29.548Z,17.17
2023-02-22T11:04:59.410Z,17.52
2023-02-22T11:07:30.955Z,17.69
2023-02-22T11:10:05.534Z,18.03
2023-02-22T11:12:33.442Z,18.14
2023-02-22T11:15:22.325Z,18.15
2023-02-22T11:17:52.647Z,18.11
2023-02-22T11:20:25.828Z,17.85
2023-02-22T11:22:54.743Z,17.01
2023-02-22T11:25:23.421Z,17.34
2023-02-22T11:27:50.129Z,17.92
2023-02-22T11:30:29.582Z,18.27
2023-02-22T11:33:03.211Z,18.00
2023-02-22T11:35:31.243Z,18.21
2023-02-22T11:38:17.378Z,18.47
2023-02-22T11:40:44.901Z,18.43
2023-02-22T11:43:16.937Z,18.43
2023-02-22T11:46:03.072Z,18.68
2023-02-22T11:48:34.907Z,18.62
2023-02-22T11:51:16.905Z,18.41
2023-02-22T11:54:19.532Z,18.43
2023-02-22T11:56:48.248Z,18.40
2023-02-22T11:59:34.418Z,18.60
2023-02-22T12:02:19.741Z,18.41
2023-02-22T12:04:57.990Z,18.43
2023-02-22T12:07:30.846Z,18.77
2023-02-22T12:09:57.397Z,18.66
2023-02-22T12:12:51.286Z,18.41
2023-02-22T12:15:42.853Z,18.77
2023-02-22T12:18:24.877Z,18.58
2023-02-22T12:20:56.921Z,18.71
2023-02-22T12:24:04.025Z,18.73
2023-02-22T12:26:36.570Z,18.52
2023-02-22T12:29:27.750Z,18.48
2023-02-22T12:32:05.401Z,18.95
2023-02-22T12:34:56.359Z,18.65
2023-02-22T12:37:24.792Z,18.74
2023-02-22T12:40:09.669Z,18.36
2023-02-22T12:42:51.095Z,18.88
2023-02-22T12:45:30.618Z,18.78
2023-02-22T12:48:21.607Z,18.80
2023-02-22T12:50:49.887Z,18.86
2023-02-22T12:53:31.457Z,18.72
2023-02-22T12:56:19.858Z,18.63
2023-02-22T12:59:02.963Z,18.61
2023-02-22T13:01:34.853Z,18.69
2023-02-22T13:04:19.519Z,18.39
2023-02-22T13:07:11.638Z,18.24
2023-02-22T13:09:59.992Z,18.35
2023-02-22T13:12:35.909Z,18.37
2023-02-22T13:15:11.059Z,18.47
2023-02-22T13:18:16.341Z,18.53
2023-02-22T13:21:01.605Z,18.54
2023-02-22T13:23:34.156Z,18.34
2023-02-22T13:26:12.601Z,18.24
2023-02-22T13:28:43.530Z,18.20
2023-02-22T13:31:36.257Z,18.10
2023-02-22T13:34:16.736Z,18.13
2023-02-22T13:36:58.123Z,18.11
2023-02-22T13:40:06.788Z,18.46
2023-02-22T13:43:02.417Z,18.32
2023-02-22T13:45:31.711Z,18.49
2023-02-22T13:48:19.303Z,18.71
2023-02-22T13:50:55.401Z,18.58
2023-02-22T13:53:25.241Z,18.45
2023-02-22T13:55:54.112Z,18.49
2023-02-22T13:58:21.237Z,17.94
2023-02-22T14:00:50.247Z,18.41
2023-02-22T14:03:30.142Z,18.51
2023-02-22T14:06:00.937Z,18.25
2023-02-22T14:08:31.666Z,18.31
2023-02-22T14:11:01.888Z,18.34
2023-02-22T14:13:53.777Z,18.05
2023-02-22T14:16:25.359Z,18.19
2023-02-22T14:19:14.449Z,18.16
2023-02-22T14:22:04.484Z,17.92
2023-02-22T14:24:44.703Z,17.86
2023-02-22T14:27:11.331Z,17.27
2023-02-22T14:29:37.986Z,16.97
2023-02-22T14:32:10.546Z,16.55
2023-02-22T14:34:58.221Z,16.38
2023-02-22T14:37:29.672Z,16.55
2023-02-22T14:40:26.442Z,16.69
2023-02-22T14:43:01.989Z,16.51
2023-02-22T14:45:33.359Z,16.28
2023-02-22T14:48:11.629Z,16.26
2023-02-22T14:50:41.277Z,16.37
2023-02-22T14:53:12.897Z,16.38
2023-02-22T14:55:43.957Z,16.17
2023-02-22T14:58:18.686Z,15.98
2023-02-22T15:00:47.198Z,16.02
2023-02-22T15:03:37.566Z,16.25
2023-02-22T15:06:20.367Z,15.82
2023-02-22T15:08:50.057Z,15.96
2023-02-22T15:11:32.712Z,16.08
2023-02-22T15:14:00.273Z,15.90
2023-02-22T15:16:28.738Z,16.05
2023-02-22T15:19:00.001Z,15.73
2023-02-22T15:21:28.006Z,15.33
2023-02-22T15:23:58.242Z,15.19
2023-02-22T15:26:59.016Z,15.22
2023-02-22T15:29:33.412Z,15.27
2023-02-22T15:32:00.197Z,15.30
2023-02-22T15:34:31.423Z,15.24
2023-02-22T15:37:06.508Z,15.35
2023-02-22T15:39:34.603Z,15.37
2023-02-22T15:42:23.088Z,15.23
2023-02-22T15:44:54.872Z,14.89
2023-02-22T15:47:27.421Z,14.87
2023-02-22T15:50:23.723Z,14.80
2023-02-22T15:52:58.209Z,14.62
2023-02-22T15:55:27.708Z,14.40
2023-02-22T15:57:54.455Z,14.14
2023-02-22T16:00:36.049Z,13.72
2023-02-22T16:03:04.735Z,13.59
2023-02-22T16:05:47.261Z,13.14
2023-02-22T16:08:26.085Z,12.88
2023-02-22T16:11:05.251Z,12.71
2023-02-22T16:13:35.461Z,12.17
2023-02-22T16:16:22.493Z,11.76
2023-02-22T16:18:49.622Z,11.65
2023-02-22T16:21:21.829Z,11.68
2023-02-22T16:23:59.121Z,11.77
2023-02-22T16:26:32.466Z,11.89
2023-02-22T16:29:09.217Z,11.86
2023-02-22T16:31:39.639Z,12.05
2023-02-22T16:34:07.573Z,11.79
2023-02-22T16:36:52.482Z,11.51
2023-02-22T16:39:37.417Z,11.55
2023-02-22T16:42:05.107Z,10.91
2023-02-22T16:44:31.738Z,10.60
2023-02-22T16:46:59.402Z,10.75
2023-02-22T16:49:26.055Z,10.68
2023-02-22T16:51:59.619Z,10.89
2023-02-22T16:54:27.339Z,11.06
2023-02-22T16:56:55.808Z,10.65
2023-02-22T16:59:22.499Z,11.09
2023-02-22T17:01:49.299Z,11.17
2023-02-22T17:04:21.207Z,10.75
2023-02-22T17:06:48.124Z,10.41
2023-02-22T17:09:15.581Z,10.32
2023-02-22T17:11:42.629Z,9.94
2023-02-22T17:14:10.463Z,9.41
2023-02-22T17:16:37.095Z,8.98
2023-02-22T17:19:05.148Z,9.06
2023-02-22T17:21:31.907Z,9.16
2023-02-22T17:23:58.558Z,9.23
2023-02-22T17:26:26.275Z,9.28
2023-02-22T17:28:53.125Z,9.33
2023-02-22T17:31:21.877Z,9.42
2023-02-22T17:33:48.893Z,9.29
2023-02-22T17:36:16.078Z,8.98
2023-02-22T17:38:43.272Z,8.87
2023-02-22T17:41:09.902Z,8.64
2023-02-22T17:43:36.763Z,8.61
2023-02-22T17:46:08.046Z,8.37
2023-02-22T17:48:35.251Z,8.33
2023-02-22T17:51:06.163Z,7.87
2023-02-22T17:53:33.258Z,7.90
2023-02-22T17:56:04.685Z,8.10
2023-02-22T17:58:31.431Z,8.11
2023-02-22T18:00:59.318Z,8.02
2023-02-22T18:03:26.550Z,7.72
2023-02-22T18:05:56.212Z,7.54
2023-02-22T18:08:26.239Z,7.64
2023-02-22T18:10:56.361Z,7.57
2023-02-22T18:13:24.428Z,7.65
2023-02-22T18:15:51.211Z,7.32
2023-02-22T18:18:18.072Z,7.45
2023-02-22T18:20:46.555Z,7.32
2023-02-22T18:23:19.479Z,7.48
2023-02-22T18:26:07.615Z,7.54
2023-02-22T18:28:36.330Z,6.99
2023-02-22T18:31:07.311Z,6.58
2023-02-22T18:33:34.115Z,6.53
2023-02-22T18:36:00.783Z,6.20
2023-02-22T18:38:27.454Z,6.60
2023-02-22T18:41:06.526Z,6.58
2023-02-22T18:43:35.273Z,6.12
2023-02-22T18:46:21.518Z,6.16
2023-02-22T18:48:49.053Z,6.18
2023-02-22T18:51:17.143Z,6.48
2023-02-22T18:53:47.154Z,6.17
2023-02-22T18:56:21.842Z,6.49
2023-02-22T18:58:52.412Z,6.20
2023-02-22T19:01:19.309Z,6.37
2023-02-22T19:03:48.975Z,6.44
2023-02-22T19:06:17.480Z,6.16
2023-02-22T19:08:44.833Z,6.17
2023-02-22T19:11:17.957Z,6.32
2023-02-22T19:13:46.448Z,6.14
2023-02-22T19:16:13.264Z,5.78
2023-02-22T19:18:40.009Z,5.87
2023-02-22T19:21:08.695Z,6.14
2023-02-22T19:23:37.466Z,5.71
2023-02-22T19:26:04.884Z,5.33
2023-02-22T19:28:34.323Z,5.16
2023-02-22T19:31:14.968Z,5.03
2023-02-22T19:33:41.856Z,5.11
2023-02-22T19:36:09.274Z,5.26
2023-02-22T19:38:36.088Z,5.19
2023-02-22T19:41:12.607Z,5.05
2023-02-22T19:43:39.494Z,4.81
2023-02-22T19:46:06.474Z,4.50
2023-02-22T19:48:33.275Z,4.71
2023-02-22T19:51:06.815Z,4.79
2023-02-22T19:53:39.100Z,4.90
2023-02-22T19:56:10.775Z,4.89
2023-02-22T19:58:58.533Z,4.82
2023-02-22T20:01:30.387Z,4.82
2023-02-22T20:04:00.999Z,4.83
2023-02-22T20:06:29.067Z,5.06
2023-02-22T20:08:56.117Z,4.62
2023-02-22T20:11:23.426Z,4.56
2023-02-22T20:13:50.123Z,4.53
2023-02-22T20:16:17.131Z,4.71
2023-02-22T20:18:44.706Z,4.45
2023-02-22T20:21:14.020Z,4.21
2023-02-22T20:23:44.286Z,4.23
2023-02-22T20:26:30.527Z,4.33
2023-02-22T20:28:59.286Z,4.24
2023-02-22T20:31:26.220Z,4.05
2023-02-22T20:33:54.154Z,4.31
2023-02-22T20:36:22.228Z,4.27
2023-02-22T20:38:51.463Z,4.25
2023-02-22T20:41:29.682Z,4.49
2023-02-22T20:43:56.549Z,4.47
2023-02-22T20:46:24.076Z,4.61
2023-02-22T20:48:58.411Z,4.41
2023-02-22T20:51:25.604Z,4.34
2023-02-22T20:53:52.424Z,4.51
2023-02-22T20:56:21.051Z,4.41
2023-02-22T20:58:47.891Z,4.33
2023-02-22T21:01:17.179Z,3.97
2023-02-22T21:03:44.193Z,4.00
2023-02-22T21:06:14.989Z,3.86
2023-02-22T21:08:45.748Z,3.55
2023-02-22T21:11:13.261Z,3.28
2023-02-22T21:13:40.528Z,3.33
2023-02-22T21:16:07.825Z,3.41
2023-02-22T21:18:34.507Z,3.19
2023-02-22T21:21:12.436Z,3.10
2023-02-22T21:23:40.207Z,2.84
2023-02-22T21:26:07.412Z,2.73
2023-02-22T21:28:53.132Z,2.71
2023-02-22T21:31:24.376Z,2.61
2023-02-22T21:33:52.985Z,2.54
2023-02-22T21:36:20.081Z,2.82
2023-02-22T21:38:49.016Z,2.96
2023-02-22T21:41:16.837Z,3.02
2023-02-22T21:43:43.900Z,3.23
2023-02-22T21:46:10.838Z,3.12
2023-02-22T21:48:45.128Z,3.17
2023-02-22T21:51:13.936Z,3.03
2023-02-22T21:53:47.881Z,2.75
2023-02-22T21:56:15.641Z,2.74
2023-02-22T21:58:46.042Z,2.76
2023-02-22T22:01:17.384Z,2.68
2023-02-22T22:03:45.167Z,2.65
2023-02-22T22:06:13.676Z,2.86
2023-02-22T22:08:41.272Z,2.91
2023-02-22T22:11:09.398Z,2.81
2023-02-22T22:13:37.733Z,3.01
2023-02-22T22:16:06.240Z,2.82
2023-02-22T22:18:32.909Z,2.84
2023-02-22T22:20:59.794Z,2.75
2023-02-22T22:23:26.596Z,2.86
2023-02-22T22:26:02.112Z,2.91
2023-02-22T22:28:28.812Z,2.39
2023-02-22T22:30:55.563Z,2.34
2023-02-22T22:33:22.470Z,2.22
2023-02-22T22:35:49.252Z,1.97
2023-02-22T22:38:15.886Z,2.12
2023-02-22T22:40:42.545Z,2.08
2023-02-22T22:43:09.158Z,1.08
2023-02-22T22:45:35.843Z,1.32
2023-02-22T22:48:04.750Z,1.65
2023-02-22T22:50:31.509Z,1.77
2023-02-22T22:52:58.215Z,1.85
2023-02-22T22:55:24.939Z,2.05
2023-02-22T22:57:54.281Z,2.11
2023-02-22T23:00:34.886Z,1.70
2023-02-22T23:03:01.702Z,1.91
2023-02-22T23:05:29.299Z,2.09
2023-02-22T23:07:56.431Z,2.21
2023-02-22T23:10:27.297Z,2.04
2023-02-22T23:12:55.508Z,1.85
2023-02-22T23:15:24.522Z,1.88
2023-02-22T23:17:56.038Z,1.70
2023-02-22T23:20:26.222Z,1.55
2023-02-22T23:22:53.845Z,1.65
2023-02-22T23:25:21.065Z,1.60
2023-02-22T23:27:48.223Z,1.41
2023-02-22T23:30:18.641Z,1.12
2023-02-22T23:32:46.779Z,1.17
2023-02-22T23:35:14.911Z,1.24
2023-02-22T23:37:42.349Z,1.46
2023-02-22T23:40:16.957Z,1.43
2023-02-22T23:42:48.851Z,0.97
2023-02-22T23:45:22.822Z,0.64
2023-02-22T23:47:54.868Z,0.28
2023-02-22T23:50:25.527Z,0.37
2023-02-22T23:52:59.577Z,0.47
2023-02-22T23:55:26.610Z,0.74
2023-02-22T23:57:59.331Z,1.04
